Severobaykal'sk, Russia
Current Conditions -  °F | °C
As of 7:30 AM on Sunday 26 Oct 2014 (Local Time) from UIUU Reporting Station
Few Clouds Few Clouds  
Wind Chill: -2°   Ceiling: Unl
Heat Index:   Visibility: 6mi
Dew Point:   Wind: 4mph
Humidity: 85%   Direction: 160°SSE
Pressure: 30.45"   Gusts: NA
Location:  55.44°N, 109.19°E
Report Text: UIUU 252330Z 16002MPS 100V200 9999 FEW100 M14/M16 Q1031 NOSIGRMK QFE728/0971 26CLRD60
Loading
Personal Weather Stations






























Interactive Weather Map
Tropical Storm Tracking
New forecast layout! Learn more

10-Day Weather Forecast

Advertisements
Track Severe Weather on mobile